Time;durP1;ratioP1;P1;durP2;ratioP2;P2;SDS_P1;SDS_P2;PMS_P1;PMS_P2;Temp;Humidity;BMP_temperature;BMP_pressure;BME280_temperature;BME280_humidity;BME280_pressure;Samples;Min_cycle;Max_cycle;Signal;HPM_P1;HPM_P2
2024/03/16 00:01:19;;;;;;;1.30;0.70;;;;;;;;;;5053808;28;20846;-82
2024/03/16 00:03:45;;;;;;;0.73;0.63;;;;;;;;;;5054229;28;20392;-82
2024/03/16 00:06:11;;;;;;;0.60;0.50;;;;;;;;;;5054396;28;20381;-82
2024/03/16 00:08:37;;;;;;;1.00;0.70;;;;;;;;;;5054159;28;20387;-82
2024/03/16 00:11:03;;;;;;;0.93;0.50;;;;;;;;;;5052788;28;20381;-81
2024/03/16 00:13:29;;;;;;;0.82;0.30;;;;;;;;;;5053699;28;20408;-82
2024/03/16 00:15:56;;;;;;;0.63;0.50;;;;;;;;;;5053533;28;20369;-82
2024/03/16 00:18:22;;;;;;;0.50;0.30;;;;;;;;;;5052259;28;20381;-82
2024/03/16 00:20:48;;;;;;;0.20;0.20;;;;;;;;;;5052047;28;20435;-82
2024/03/16 00:23:14;;;;;;;0.30;0.30;;;;;;;;;;5053381;28;20887;-82
2024/03/16 00:25:40;;;;;;;0.47;0.30;;;;;;;;;;5053094;28;20392;-82
2024/03/16 00:28:07;;;;;;;0.52;0.40;;;;;;;;;;5053079;28;20378;-82
2024/03/16 00:30:33;;;;;;;0.60;0.40;;;;;;;;;;5053303;28;20863;-82
2024/03/16 00:32:59;;;;;;;0.32;0.30;;;;;;;;;;5053221;28;20436;-82
2024/03/16 00:35:26;;;;;;;1.00;0.35;;;;;;;;;;5053209;28;20380;-82
2024/03/16 00:37:54;;;;;;;0.45;0.30;;;;;;;;;;5052210;28;20405;-82
2024/03/16 00:40:20;;;;;;;1.20;0.40;;;;;;;;;;5051995;28;20381;-82
2024/03/16 00:42:46;;;;;;;0.43;0.22;;;;;;;;;;5053282;28;20381;-82
2024/03/16 00:45:13;;;;;;;0.75;0.30;;;;;;;;;;5053518;28;20859;-82
2024/03/16 00:47:39;;;;;;;1.00;0.35;;;;;;;;;;5052918;28;20412;-82
2024/03/16 00:50:05;;;;;;;0.60;0.20;;;;;;;;;;5053102;28;20406;-82
2024/03/16 00:52:31;;;;;;;1.92;0.30;;;;;;;;;;5053196;28;20421;-82
2024/03/16 00:54:57;;;;;;;0.40;0.23;;;;;;;;;;5053310;28;20386;-82
2024/03/16 00:57:24;;;;;;;0.55;0.40;;;;;;;;;;5052798;28;20378;-82
2024/03/16 00:59:50;;;;;;;0.50;0.22;;;;;;;;;;5053631;28;20431;-82
2024/03/16 01:02:16;;;;;;;0.52;0.30;;;;;;;;;;5053498;28;20373;-82
2024/03/16 01:04:42;;;;;;;0.47;0.30;;;;;;;;;;5053149;28;20461;-82
2024/03/16 01:07:08;;;;;;;0.95;0.40;;;;;;;;;;5053476;28;20385;-82
2024/03/16 01:09:34;;;;;;;0.30;0.30;;;;;;;;;;5053818;28;20408;-82
2024/03/16 01:11:59;;;;;;;0.67;0.37;;;;;;;;;;5053599;28;20405;-82
2024/03/16 01:14:25;;;;;;;0.40;0.30;;;;;;;;;;5053222;28;20891;-82
2024/03/16 01:16:51;;;;;;;0.40;0.28;;;;;;;;;;5053528;28;20464;-82
2024/03/16 01:19:18;;;;;;;0.55;0.30;;;;;;;;;;5053380;28;20377;-82
2024/03/16 01:21:44;;;;;;;0.40;0.40;;;;;;;;;;5053424;28;20401;-82
2024/03/16 01:24:10;;;;;;;0.30;0.30;;;;;;;;;;5053229;28;20400;-82
2024/03/16 01:26:36;;;;;;;0.43;0.30;;;;;;;;;;5052964;28;20386;-82
2024/03/16 01:29:04;;;;;;;0.80;0.40;;;;;;;;;;5053489;28;20525;-82
2024/03/16 01:31:30;;;;;;;1.02;0.40;;;;;;;;;;5042474;28;20389;-81
2024/03/16 01:33:56;;;;;;;0.80;0.30;;;;;;;;;;5033147;28;20379;-81
2024/03/16 01:36:23;;;;;;;0.50;0.30;;;;;;;;;;5032809;28;20877;-82
2024/03/16 01:38:49;;;;;;;0.20;0.17;;;;;;;;;;5032576;28;20389;-82
2024/03/16 01:41:15;;;;;;;0.20;0.20;;;;;;;;;;5033718;28;20462;-82
2024/03/16 01:43:46;;;;;;;0.60;0.25;;;;;;;;;;5038153;28;20382;-82
2024/03/16 01:46:15;;;;;;;0.40;0.20;;;;;;;;;;5053681;28;20740;-82
2024/03/16 01:48:41;;;;;;;0.50;0.20;;;;;;;;;;5056642;28;20377;-82
2024/03/16 01:51:07;;;;;;;0.50;0.22;;;;;;;;;;5056751;28;20412;-82
2024/03/16 01:53:33;;;;;;;0.70;0.30;;;;;;;;;;5056811;28;20471;-82
2024/03/16 01:55:59;;;;;;;0.45;0.30;;;;;;;;;;5056914;28;20391;-82
2024/03/16 01:58:25;;;;;;;0.70;0.40;;;;;;;;;;5056828;28;20866;-82
2024/03/16 02:00:51;;;;;;;0.40;0.40;;;;;;;;;;5056940;28;20440;-81
2024/03/16 02:03:17;;;;;;;1.92;0.60;;;;;;;;;;5056038;28;20394;-82
2024/03/16 02:05:46;;;;;;;0.95;0.50;;;;;;;;;;5056730;28;20391;-82
2024/03/16 02:08:12;;;;;;;0.30;0.30;;;;;;;;;;5056360;28;20855;-82
2024/03/16 02:10:38;;;;;;;0.88;0.40;;;;;;;;;;5056527;28;20411;-82
2024/03/16 02:13:04;;;;;;;1.77;0.47;;;;;;;;;;5056350;28;20452;-82
2024/03/16 02:15:30;;;;;;;0.43;0.35;;;;;;;;;;5056054;28;20374;-82
2024/03/16 02:17:56;;;;;;;0.70;0.40;;;;;;;;;;5055745;28;20864;-82
2024/03/16 02:20:21;;;;;;;0.50;0.40;;;;;;;;;;5056042;28;20415;-82
2024/03/16 02:22:49;;;;;;;0.60;0.40;;;;;;;;;;5056517;28;20390;-82
2024/03/16 02:25:15;;;;;;;1.00;0.30;;;;;;;;;;5056426;28;20843;-82
2024/03/16 02:27:43;;;;;;;0.30;0.30;;;;;;;;;;5056124;28;20396;-82
2024/03/16 02:30:14;;;;;;;1.48;0.40;;;;;;;;;;5056049;28;20381;-82
2024/03/16 02:32:40;;;;;;;0.35;0.30;;;;;;;;;;5055886;28;20790;-82
2024/03/16 02:35:08;;;;;;;0.38;0.38;;;;;;;;;;5055924;28;20389;-82
2024/03/16 02:37:34;;;;;;;0.30;0.30;;;;;;;;;;5055958;28;20403;-82
2024/03/16 02:40:00;;;;;;;0.20;0.20;;;;;;;;;;5055369;28;20375;-82
2024/03/16 02:42:27;;;;;;;0.70;0.30;;;;;;;;;;5055322;28;20598;-82
2024/03/16 02:44:53;;;;;;;0.30;0.30;;;;;;;;;;5055412;28;20377;-81
2024/03/16 02:47:20;;;;;;;1.10;0.40;;;;;;;;;;5055282;28;20496;-82
2024/03/16 02:49:49;;;;;;;2.50;0.40;;;;;;;;;;5056093;28;20874;-82
2024/03/16 02:52:15;;;;;;;1.05;0.20;;;;;;;;;;5056551;28;20428;-82
2024/03/16 02:54:41;;;;;;;0.30;0.30;;;;;;;;;;5056650;28;20835;-82
2024/03/16 02:57:07;;;;;;;0.50;0.40;;;;;;;;;;5056291;28;20386;-82
2024/03/16 02:59:33;;;;;;;0.30;0.30;;;;;;;;;;5056095;28;20381;-82
2024/03/16 03:01:59;;;;;;;0.80;0.50;;;;;;;;;;5057310;28;20851;-82
2024/03/16 03:04:25;;;;;;;1.10;0.70;;;;;;;;;;5056739;28;20389;-82
2024/03/16 03:06:51;;;;;;;0.80;0.60;;;;;;;;;;5055437;28;20390;-82
2024/03/16 03:09:18;;;;;;;1.70;0.95;;;;;;;;;;5057334;28;20382;-82
2024/03/16 03:11:44;;;;;;;0.80;0.50;;;;;;;;;;5056676;28;20385;-82
2024/03/16 03:14:10;;;;;;;1.13;0.70;;;;;;;;;;5056441;28;20381;-82
2024/03/16 03:16:36;;;;;;;0.90;0.80;;;;;;;;;;5055727;28;20476;-81
2024/03/16 03:19:02;;;;;;;1.20;0.70;;;;;;;;;;5055695;28;20420;-81
2024/03/16 03:21:29;;;;;;;0.90;0.50;;;;;;;;;;5056301;28;20374;-82
2024/03/16 03:23:55;;;;;;;1.00;0.70;;;;;;;;;;5053688;28;20868;-81
2024/03/16 03:26:22;;;;;;;0.97;0.77;;;;;;;;;;5055981;28;20387;-82
2024/03/16 03:28:48;;;;;;;0.90;0.70;;;;;;;;;;5055296;28;20377;-82
2024/03/16 03:31:14;;;;;;;0.50;0.50;;;;;;;;;;5055788;28;20370;-82
2024/03/16 03:33:40;;;;;;;0.60;0.50;;;;;;;;;;5055116;28;20397;-82
2024/03/16 03:36:07;;;;;;;0.85;0.50;;;;;;;;;;5055581;28;20381;-82
2024/03/16 03:38:33;;;;;;;0.70;0.70;;;;;;;;;;5055920;28;20382;-82
2024/03/16 03:40:59;;;;;;;1.10;0.90;;;;;;;;;;5047485;28;20379;-82
2024/03/16 03:43:25;;;;;;;0.93;0.82;;;;;;;;;;5035359;28;20394;-82
2024/03/16 03:45:52;;;;;;;1.27;1.17;;;;;;;;;;5034377;28;20892;-82
2024/03/16 03:50:54;;;;;;;1.60;1.15;;;;;;;;;;5034974;28;20406;-82
2024/03/16 03:53:21;;;;;;;1.10;1.00;;;;;;;;;;5034962;28;20411;-82
2024/03/16 03:55:47;;;;;;;1.20;1.10;;;;;;;;;;5035151;28;20383;-82
2024/03/16 03:58:13;;;;;;;1.92;1.50;;;;;;;;;;5035150;28;20916;-82
2024/03/16 04:00:39;;;;;;;1.42;1.30;;;;;;;;;;5034472;28;20426;-82
2024/03/16 04:03:08;;;;;;;1.25;1.15;;;;;;;;;;5035461;28;20429;-82
2024/03/16 04:05:34;;;;;;;1.63;1.30;;;;;;;;;;5034671;28;20382;-82
2024/03/16 04:08:00;;;;;;;1.63;1.48;;;;;;;;;;5035091;28;20393;-82
2024/03/16 04:10:27;;;;;;;1.50;1.40;;;;;;;;;;5034947;28;20821;-82
2024/03/16 04:12:53;;;;;;;2.53;1.70;;;;;;;;;;5034901;28;20482;-82
2024/03/16 04:15:19;;;;;;;2.15;1.70;;;;;;;;;;5035015;28;20387;-82
2024/03/16 04:17:45;;;;;;;3.35;1.60;;;;;;;;;;5035047;28;20387;-82
2024/03/16 04:20:12;;;;;;;2.20;1.50;;;;;;;;;;5035243;28;20841;-82
2024/03/16 04:22:38;;;;;;;2.20;1.65;;;;;;;;;;5035637;28;20786;-82
2024/03/16 04:25:07;;;;;;;2.05;1.80;;;;;;;;;;5035945;28;21110;-82
2024/03/16 04:27:33;;;;;;;1.98;1.77;;;;;;;;;;5034742;28;20382;-82
2024/03/16 04:29:59;;;;;;;2.20;2.00;;;;;;;;;;5034394;28;20461;-82
2024/03/16 04:32:28;;;;;;;3.22;2.05;;;;;;;;;;5054121;28;20459;-82
2024/03/16 04:34:54;;;;;;;2.38;2.10;;;;;;;;;;5054657;28;20844;-82
2024/03/16 04:37:20;;;;;;;2.45;1.90;;;;;;;;;;5054016;28;20373;-82
2024/03/16 04:39:47;;;;;;;1.92;1.75;;;;;;;;;;5054249;28;20716;-82
2024/03/16 04:42:13;;;;;;;2.60;2.10;;;;;;;;;;5053931;28;20377;-82
2024/03/16 04:44:40;;;;;;;3.28;2.33;;;;;;;;;;5053958;28;20389;-82
2024/03/16 04:47:06;;;;;;;2.63;2.43;;;;;;;;;;5049148;28;20869;-82
2024/03/16 04:49:32;;;;;;;2.63;2.28;;;;;;;;;;5033734;28;20469;-82
2024/03/16 04:51:59;;;;;;;2.75;2.30;;;;;;;;;;5049785;28;20471;-82
2024/03/16 04:54:25;;;;;;;3.50;2.22;;;;;;;;;;5053810;28;20381;-82
2024/03/16 04:56:51;;;;;;;3.00;2.35;;;;;;;;;;5053576;28;20482;-82
2024/03/16 04:59:17;;;;;;;3.00;2.75;;;;;;;;;;5053673;28;20389;-82
2024/03/16 05:01:43;;;;;;;4.03;3.20;;;;;;;;;;5053799;28;20776;-82
2024/03/16 05:04:09;;;;;;;3.75;2.80;;;;;;;;;;5053299;28;20378;-82
2024/03/16 05:06:35;;;;;;;4.03;3.08;;;;;;;;;;5054167;28;20392;-82
2024/03/16 05:09:05;;;;;;;2.90;2.58;;;;;;;;;;5053250;28;20386;-82
2024/03/16 05:11:31;;;;;;;3.45;3.15;;;;;;;;;;5053199;28;20382;-82
2024/03/16 05:14:02;;;;;;;4.38;3.53;;;;;;;;;;5053225;28;20412;-82
2024/03/16 05:16:28;;;;;;;4.75;3.55;;;;;;;;;;5053391;28;20388;-82
2024/03/16 05:18:54;;;;;;;4.70;3.50;;;;;;;;;;5053011;28;20381;-82
2024/03/16 05:21:21;;;;;;;5.43;4.10;;;;;;;;;;5053535;28;20377;-82
2024/03/16 05:23:47;;;;;;;4.85;4.00;;;;;;;;;;5057510;28;20373;-82
2024/03/16 05:26:14;;;;;;;4.80;4.00;;;;;;;;;;5057615;28;20385;-82
2024/03/16 05:28:40;;;;;;;4.90;3.83;;;;;;;;;;5057525;28;20377;-82
2024/03/16 05:31:08;;;;;;;5.87;4.97;;;;;;;;;;5053845;28;20719;-82
2024/03/16 05:33:34;;;;;;;6.95;4.75;;;;;;;;;;5055768;28;21215;-82
2024/03/16 05:36:02;;;;;;;5.40;4.68;;;;;;;;;;5056975;28;20396;-82
2024/03/16 05:38:28;;;;;;;6.03;4.90;;;;;;;;;;5057623;28;20385;-83
2024/03/16 05:40:56;;;;;;;6.95;5.18;;;;;;;;;;5057559;28;20417;-83
2024/03/16 05:43:22;;;;;;;7.80;5.53;;;;;;;;;;5057376;28;20377;-83
2024/03/16 05:45:52;;;;;;;6.82;5.45;;;;;;;;;;5056218;28;20713;-83
2024/03/16 05:48:18;;;;;;;5.85;5.18;;;;;;;;;;5057751;28;20739;-83
2024/03/16 05:50:44;;;;;;;6.03;4.93;;;;;;;;;;5057400;28;20409;-83
2024/03/16 05:53:14;;;;;;;6.82;4.93;;;;;;;;;;5057731;28;20906;-83
2024/03/16 05:55:40;;;;;;;6.18;4.90;;;;;;;;;;5056921;28;20381;-83
2024/03/16 05:58:06;;;;;;;7.20;5.10;;;;;;;;;;5057670;28;20378;-83
2024/03/16 06:00:32;;;;;;;6.38;5.20;;;;;;;;;;5057724;28;20405;-83
2024/03/16 06:02:59;;;;;;;7.07;4.95;;;;;;;;;;5044541;28;20441;-84
2024/03/16 06:05:26;;;;;;;6.10;5.00;;;;;;;;;;5043822;28;20386;-83
2024/03/16 06:07:52;;;;;;;5.93;4.25;;;;;;;;;;5046036;28;20425;-83
2024/03/16 06:10:18;;;;;;;4.82;4.18;;;;;;;;;;5050383;28;20393;-83
2024/03/16 06:12:44;;;;;;;4.72;3.95;;;;;;;;;;5039608;28;20414;-83
2024/03/16 06:15:10;;;;;;;4.65;3.90;;;;;;;;;;5052191;28;20379;-83
2024/03/16 06:17:36;;;;;;;4.00;3.40;;;;;;;;;;5043255;28;20725;-83
2024/03/16 06:20:05;;;;;;;4.75;3.63;;;;;;;;;;5044666;28;20873;-83
2024/03/16 06:22:31;;;;;;;4.85;3.45;;;;;;;;;;5051984;28;20451;-83
2024/03/16 06:24:57;;;;;;;3.83;2.90;;;;;;;;;;5040476;28;20774;-83
2024/03/16 06:27:25;;;;;;;3.05;2.60;;;;;;;;;;5049947;28;20379;-83
2024/03/16 06:29:55;;;;;;;4.07;2.67;;;;;;;;;;5046876;28;20416;-83
2024/03/16 06:32:24;;;;;;;5.32;3.03;;;;;;;;;;5042028;28;20493;-83
2024/03/16 06:34:50;;;;;;;4.70;2.55;;;;;;;;;;5051367;28;20873;-83
2024/03/16 06:37:19;;;;;;;3.30;2.50;;;;;;;;;;5039910;28;20416;-83
2024/03/16 06:39:48;;;;;;;4.35;2.60;;;;;;;;;;5055598;28;20884;-83
2024/03/16 06:42:14;;;;;;;3.50;2.20;;;;;;;;;;5045130;28;20823;-83
2024/03/16 06:44:40;;;;;;;4.10;2.30;;;;;;;;;;5038433;28;20433;-83
2024/03/16 06:47:06;;;;;;;2.83;2.35;;;;;;;;;;5037939;28;20417;-82
2024/03/16 06:49:33;;;;;;;3.47;2.10;;;;;;;;;;5050201;28;20437;-82
2024/03/16 06:51:59;;;;;;;3.45;2.53;;;;;;;;;;5053071;28;20429;-82
2024/03/16 06:54:25;;;;;;;3.13;2.30;;;;;;;;;;5055139;28;20719;-82
2024/03/16 06:56:51;;;;;;;3.85;2.33;;;;;;;;;;5057374;28;20441;-83
2024/03/16 06:59:17;;;;;;;2.80;2.10;;;;;;;;;;5055944;28;20373;-82
2024/03/16 07:01:43;;;;;;;3.08;2.33;;;;;;;;;;5055320;28;20373;-82
2024/03/16 07:04:10;;;;;;;2.75;1.95;;;;;;;;;;5055562;28;20388;-82
2024/03/16 07:06:36;;;;;;;3.25;2.40;;;;;;;;;;5056671;28;20377;-81
2024/03/16 07:09:03;;;;;;;3.28;2.20;;;;;;;;;;5056378;28;20377;-82
2024/03/16 07:11:29;;;;;;;3.65;2.60;;;;;;;;;;5056230;28;20855;-81
2024/03/16 07:13:55;;;;;;;3.90;3.30;;;;;;;;;;5055787;28;20398;-82
2024/03/16 07:16:21;;;;;;;2.90;2.40;;;;;;;;;;5057333;28;20464;-82
2024/03/16 07:18:47;;;;;;;2.50;2.30;;;;;;;;;;5057676;28;20386;-81
2024/03/16 07:21:19;;;;;;;2.67;2.33;;;;;;;;;;5057867;28;20435;-81
2024/03/16 07:23:47;;;;;;;2.73;2.10;;;;;;;;;;5058462;28;20392;-83
2024/03/16 07:26:13;;;;;;;3.25;2.20;;;;;;;;;;5058319;28;20501;-81
2024/03/16 07:28:39;;;;;;;3.90;2.40;;;;;;;;;;5056951;28;20385;-81
2024/03/16 07:31:05;;;;;;;2.63;2.05;;;;;;;;;;5056693;28;20377;-82
2024/03/16 07:33:32;;;;;;;3.28;2.10;;;;;;;;;;5055903;28;20421;-81
2024/03/16 07:35:58;;;;;;;3.22;2.15;;;;;;;;;;5056160;28;20427;-82
2024/03/16 07:38:24;;;;;;;3.37;1.90;;;;;;;;;;5055277;28;20499;-82
2024/03/16 07:40:52;;;;;;;2.78;2.00;;;;;;;;;;5041468;28;20376;-82
2024/03/16 07:43:18;;;;;;;2.60;1.90;;;;;;;;;;5057690;28;20389;-82
2024/03/16 07:45:49;;;;;;;2.25;1.70;;;;;;;;;;5055948;28;20382;-81
2024/03/16 07:48:14;;;;;;;2.28;1.58;;;;;;;;;;5056304;28;20378;-81
2024/03/16 07:50:40;;;;;;;2.75;1.90;;;;;;;;;;5055783;28;20427;-82
2024/03/16 07:53:07;;;;;;;2.08;1.63;;;;;;;;;;5053406;28;20553;-82
2024/03/16 07:55:33;;;;;;;1.50;1.40;;;;;;;;;;5054860;28;20762;-82
2024/03/16 07:58:00;;;;;;;2.13;1.80;;;;;;;;;;5055143;28;20381;-81
2024/03/16 08:00:26;;;;;;;2.78;1.70;;;;;;;;;;5055241;28;20870;-81
2024/03/16 08:02:52;;;;;;;2.75;1.70;;;;;;;;;;5055064;28;20389;-81
2024/03/16 08:05:18;;;;;;;2.70;1.70;;;;;;;;;;5054357;28;20381;-81
2024/03/16 08:07:47;;;;;;;2.60;1.33;;;;;;;;;;5054584;28;20377;-81
2024/03/16 08:10:13;;;;;;;2.58;1.30;;;;;;;;;;5054323;28;20762;-81
2024/03/16 08:12:39;;;;;;;2.20;1.40;;;;;;;;;;5054644;28;20459;-81
2024/03/16 08:15:06;;;;;;;2.58;1.13;;;;;;;;;;5053660;28;20389;-81
2024/03/16 08:17:32;;;;;;;2.17;1.20;;;;;;;;;;5053709;28;20389;-82
2024/03/16 08:19:59;;;;;;;2.05;1.20;;;;;;;;;;5054365;28;20381;-81
2024/03/16 08:22:25;;;;;;;2.20;1.13;;;;;;;;;;5053737;28;20388;-81
2024/03/16 08:24:52;;;;;;;2.37;1.50;;;;;;;;;;5054011;28;20381;-82
2024/03/16 08:27:18;;;;;;;3.55;1.40;;;;;;;;;;5053577;28;20890;-82
2024/03/16 08:29:44;;;;;;;2.22;1.40;;;;;;;;;;5054261;28;20385;-82
2024/03/16 08:32:12;;;;;;;3.00;1.03;;;;;;;;;;5054101;28;20417;-81
2024/03/16 08:34:38;;;;;;;1.27;0.88;;;;;;;;;;5053776;28;20382;-82
2024/03/16 08:37:04;;;;;;;2.70;1.05;;;;;;;;;;5054232;28;20448;-82
2024/03/16 08:39:33;;;;;;;2.83;1.05;;;;;;;;;;5053908;28;20827;-82
2024/03/16 08:41:59;;;;;;;2.30;1.00;;;;;;;;;;5054054;28;20823;-81
2024/03/16 08:44:26;;;;;;;2.88;1.02;;;;;;;;;;5053441;28;20466;-82
2024/03/16 08:46:52;;;;;;;2.72;1.10;;;;;;;;;;5053434;28;20381;-81
2024/03/16 08:49:18;;;;;;;2.78;0.90;;;;;;;;;;5052979;28;20408;-81
2024/03/16 08:51:44;;;;;;;2.45;0.90;;;;;;;;;;5053480;28;20409;-82
2024/03/16 08:54:10;;;;;;;4.57;1.13;;;;;;;;;;5053076;28;20405;-81
2024/03/16 08:56:36;;;;;;;3.70;1.10;;;;;;;;;;5052414;28;20437;-81
2024/03/16 08:59:03;;;;;;;3.63;0.90;;;;;;;;;;5053117;28;20721;-82
2024/03/16 09:01:29;;;;;;;2.60;0.93;;;;;;;;;;5053026;28;20777;-82
2024/03/16 09:03:55;;;;;;;3.67;0.98;;;;;;;;;;5052985;28;20386;-82
2024/03/16 09:06:21;;;;;;;5.22;1.10;;;;;;;;;;5053919;28;20425;-82
2024/03/16 09:08:47;;;;;;;3.10;1.40;;;;;;;;;;5053518;28;20381;-82
2024/03/16 09:11:13;;;;;;;2.65;1.05;;;;;;;;;;5053288;28;20385;-82
2024/03/16 09:13:39;;;;;;;3.30;1.10;;;;;;;;;;5053031;28;20401;-82
2024/03/16 09:16:05;;;;;;;4.47;1.42;;;;;;;;;;5053242;28;20720;-82
2024/03/16 09:18:34;;;;;;;4.85;1.48;;;;;;;;;;5053090;28;20377;-81
2024/03/16 09:21:00;;;;;;;5.53;1.20;;;;;;;;;;5052797;28;20459;-84
2024/03/16 09:23:26;;;;;;;5.28;1.58;;;;;;;;;;5052780;28;20917;-81
2024/03/16 09:25:56;;;;;;;6.40;1.77;;;;;;;;;;5052859;28;20386;-81
2024/03/16 09:28:22;;;;;;;5.75;1.70;;;;;;;;;;5052401;28;20389;-82
2024/03/16 09:30:48;;;;;;;5.07;1.35;;;;;;;;;;5053126;28;20389;-82
2024/03/16 09:33:15;;;;;;;5.90;1.40;;;;;;;;;;5049746;28;20405;-83
2024/03/16 09:35:42;;;;;;;4.63;1.48;;;;;;;;;;5052717;28;20774;-81
2024/03/16 09:38:08;;;;;;;5.60;1.55;;;;;;;;;;5052581;28;20377;-82
2024/03/16 09:40:43;;;;;;;3.38;1.20;;;;;;;;;;5037065;28;20386;-82
2024/03/16 09:43:13;;;;;;;5.65;1.52;;;;;;;;;;5032652;28;20433;-81
2024/03/16 09:45:40;;;;;;;4.30;1.27;;;;;;;;;;5032226;28;20395;-82
2024/03/16 09:48:09;;;;;;;4.03;1.60;;;;;;;;;;5032338;28;20723;-79
2024/03/16 09:50:41;;;;;;;5.75;1.25;;;;;;;;;;5032903;28;20411;-80
2024/03/16 09:53:09;;;;;;;3.00;1.02;;;;;;;;;;5032760;28;20448;-80
2024/03/16 09:55:35;;;;;;;4.75;1.20;;;;;;;;;;5032990;28;20417;-80
2024/03/16 09:58:01;;;;;;;4.55;1.30;;;;;;;;;;5033694;28;20379;-80
2024/03/16 10:00:28;;;;;;;6.70;1.38;;;;;;;;;;5032560;28;20525;-80
2024/03/16 10:02:54;;;;;;;5.97;1.50;;;;;;;;;;5033582;28;20476;-79
2024/03/16 10:05:20;;;;;;;6.18;1.70;;;;;;;;;;5033093;28;20375;-80
2024/03/16 10:07:46;;;;;;;5.93;2.92;;;;;;;;;;5033802;28;20468;-80
2024/03/16 10:10:17;;;;;;;6.97;2.13;;;;;;;;;;5036008;28;20429;-80
2024/03/16 10:12:43;;;;;;;4.13;1.25;;;;;;;;;;5036323;28;20746;-80
2024/03/16 10:15:15;;;;;;;5.32;2.00;;;;;;;;;;5036423;28;20375;-80
2024/03/16 10:17:41;;;;;;;3.17;0.95;;;;;;;;;;5036028;28;20439;-80
2024/03/16 10:20:18;;;;;;;3.30;1.10;;;;;;;;;;5035606;28;20389;-79
2024/03/16 10:22:44;;;;;;;3.42;1.00;;;;;;;;;;5036027;28;20413;-80
2024/03/16 10:25:10;;;;;;;4.32;1.10;;;;;;;;;;5035762;28;20418;-82
2024/03/16 10:27:38;;;;;;;4.47;1.48;;;;;;;;;;5035918;28;20413;-80
2024/03/16 10:30:04;;;;;;;4.33;1.10;;;;;;;;;;5035717;28;20383;-81
2024/03/16 10:32:30;;;;;;;3.67;1.00;;;;;;;;;;5035902;28;20410;-80
2024/03/16 10:35:03;;;;;;;3.60;1.20;;;;;;;;;;5035823;28;20437;-80
2024/03/16 10:37:32;;;;;;;4.05;1.10;;;;;;;;;;5035654;28;20371;-80
2024/03/16 10:39:58;;;;;;;3.97;1.30;;;;;;;;;;5034495;28;20383;-80
2024/03/16 10:42:26;;;;;;;4.43;1.10;;;;;;;;;;5043299;28;20378;-81
2024/03/16 10:44:52;;;;;;;2.83;1.10;;;;;;;;;;5055585;28;20388;-80
2024/03/16 10:47:20;;;;;;;5.85;0.90;;;;;;;;;;5055414;28;20385;-80
2024/03/16 10:49:49;;;;;;;3.47;0.95;;;;;;;;;;5055091;28;20484;-80
2024/03/16 10:52:15;;;;;;;4.07;0.98;;;;;;;;;;5055289;28;20840;-79
2024/03/16 10:54:41;;;;;;;3.90;1.13;;;;;;;;;;5055379;28;20463;-80
2024/03/16 10:57:07;;;;;;;2.50;0.90;;;;;;;;;;5055644;28;20863;-80
2024/03/16 10:59:33;;;;;;;4.18;1.30;;;;;;;;;;5055435;28;20382;-80
2024/03/16 11:01:59;;;;;;;3.67;0.93;;;;;;;;;;5055551;28;20385;-80
2024/03/16 11:04:26;;;;;;;3.63;1.00;;;;;;;;;;5055467;28;20408;-80
2024/03/16 11:06:54;;;;;;;3.35;0.90;;;;;;;;;;5055405;28;20784;-80
2024/03/16 11:09:26;;;;;;;4.25;0.90;;;;;;;;;;5054649;28;20377;-80
2024/03/16 11:11:55;;;;;;;1.33;0.55;;;;;;;;;;5055100;28;20378;-81
2024/03/16 11:14:22;;;;;;;3.05;0.80;;;;;;;;;;5054644;28;20382;-81
2024/03/16 11:16:50;;;;;;;2.40;0.50;;;;;;;;;;5054687;28;20377;-81
2024/03/16 11:19:17;;;;;;;2.28;0.52;;;;;;;;;;5054929;28;20404;-81
2024/03/16 11:21:53;;;;;;;2.58;0.80;;;;;;;;;;5054444;28;20755;-83
2024/03/16 11:24:20;;;;;;;3.78;2.10;;;;;;;;;;5055185;28;20400;-82
2024/03/16 11:26:46;;;;;;;3.15;1.10;;;;;;;;;;5053485;28;20420;-82
2024/03/16 11:29:15;;;;;;;2.00;0.80;;;;;;;;;;5054617;28;20420;-82
2024/03/16 11:31:44;;;;;;;1.75;0.98;;;;;;;;;;5052207;28;20378;-82
2024/03/16 11:34:11;;;;;;;2.93;0.80;;;;;;;;;;5054559;28;20439;-82
2024/03/16 11:36:41;;;;;;;3.13;0.70;;;;;;;;;;5054176;28;20385;-82
2024/03/16 11:39:11;;;;;;;2.15;0.70;;;;;;;;;;5040574;28;20376;-82
2024/03/16 11:41:44;;;;;;;2.47;1.00;;;;;;;;;;5034350;28;20877;-81
2024/03/16 11:44:12;;;;;;;2.63;1.23;;;;;;;;;;5037072;28;20485;-81
2024/03/16 11:46:39;;;;;;;1.98;0.80;;;;;;;;;;5053259;28;20386;-81
2024/03/16 11:49:05;;;;;;;1.90;0.73;;;;;;;;;;5053730;28;20492;-81
2024/03/16 11:51:31;;;;;;;1.95;0.75;;;;;;;;;;5053665;28;20397;-82
2024/03/16 11:53:58;;;;;;;2.83;0.85;;;;;;;;;;5053335;28;20463;-82
2024/03/16 11:56:24;;;;;;;2.20;0.70;;;;;;;;;;5054295;28;20419;-81
2024/03/16 11:58:50;;;;;;;1.52;0.70;;;;;;;;;;5053766;28;20385;-82
2024/03/16 12:01:21;;;;;;;1.75;0.57;;;;;;;;;;5054116;28;20400;-82
2024/03/16 12:03:48;;;;;;;2.60;0.80;;;;;;;;;;5053931;28;20377;-80
2024/03/16 12:06:15;;;;;;;2.47;0.60;;;;;;;;;;5053590;28;20389;-81
2024/03/16 12:08:41;;;;;;;2.85;0.90;;;;;;;;;;5052737;28;20775;-82
2024/03/16 12:11:08;;;;;;;1.15;0.57;;;;;;;;;;5053566;28;20389;-80
2024/03/16 12:13:35;;;;;;;1.90;0.68;;;;;;;;;;5053355;28;20406;-81
2024/03/16 12:16:00;;;;;;;2.00;0.83;;;;;;;;;;5053331;28;20487;-81
2024/03/16 12:18:26;;;;;;;2.08;0.63;;;;;;;;;;5053519;28;21159;-81
2024/03/16 12:20:56;;;;;;;1.80;0.50;;;;;;;;;;5053768;28;20456;-80
2024/03/16 12:23:24;;;;;;;1.57;0.50;;;;;;;;;;5053899;28;20519;-82
2024/03/16 12:25:53;;;;;;;2.20;0.60;;;;;;;;;;5053251;28;20408;-82
2024/03/16 12:28:19;;;;;;;2.20;0.55;;;;;;;;;;5052905;28;20388;-82
2024/03/16 12:30:45;;;;;;;1.30;0.60;;;;;;;;;;5052500;28;20413;-81
2024/03/16 12:33:12;;;;;;;0.98;0.47;;;;;;;;;;5045232;28;20463;-81
2024/03/16 12:35:40;;;;;;;1.10;0.40;;;;;;;;;;5038446;28;20379;-81
2024/03/16 12:38:07;;;;;;;0.85;0.30;;;;;;;;;;5035244;28;20907;-83
2024/03/16 12:40:34;;;;;;;0.77;0.30;;;;;;;;;;5049346;28;20369;-81
2024/03/16 12:43:00;;;;;;;1.38;0.43;;;;;;;;;;5053512;28;20425;-83
2024/03/16 12:45:26;;;;;;;1.25;0.50;;;;;;;;;;5053088;28;20836;-80
2024/03/16 12:47:52;;;;;;;1.73;0.50;;;;;;;;;;5038868;28;20438;-82
2024/03/16 12:50:18;;;;;;;1.27;0.53;;;;;;;;;;5048790;28;20417;-81
2024/03/16 12:52:44;;;;;;;1.58;0.50;;;;;;;;;;5047351;28;20414;-82
2024/03/16 12:55:14;;;;;;;2.30;0.70;;;;;;;;;;5033520;28;20383;-82
2024/03/16 12:57:40;;;;;;;1.20;0.45;;;;;;;;;;5037348;28;20486;-80
2024/03/16 13:00:06;;;;;;;1.93;0.50;;;;;;;;;;5045344;28;20385;-82
2024/03/16 13:02:37;;;;;;;2.45;0.60;;;;;;;;;;5052579;28;20388;-82
2024/03/16 13:05:03;;;;;;;0.87;0.30;;;;;;;;;;5052650;28;20428;-82
2024/03/16 13:07:29;;;;;;;1.85;0.65;;;;;;;;;;5053221;28;20847;-83
2024/03/16 13:09:55;;;;;;;1.58;0.47;;;;;;;;;;5052895;28;20469;-81
2024/03/16 13:12:21;;;;;;;1.52;0.45;;;;;;;;;;5053394;28;20408;-81
2024/03/16 13:14:50;;;;;;;1.53;0.43;;;;;;;;;;5053318;28;20434;-82
2024/03/16 13:17:16;;;;;;;1.67;0.60;;;;;;;;;;5053223;28;20719;-81
2024/03/16 13:19:42;;;;;;;1.70;0.50;;;;;;;;;;5052528;28;20384;-81
2024/03/16 13:22:11;;;;;;;1.08;0.40;;;;;;;;;;5052612;28;20366;-81
2024/03/16 13:24:38;;;;;;;2.28;0.50;;;;;;;;;;5052891;28;20755;-81
2024/03/16 13:27:05;;;;;;;1.52;0.57;;;;;;;;;;5052171;28;20385;-82
2024/03/16 13:29:31;;;;;;;1.38;0.40;;;;;;;;;;5051790;28;20743;-82
2024/03/16 13:31:57;;;;;;;1.55;0.65;;;;;;;;;;5052264;28;20382;-81
2024/03/16 13:34:23;;;;;;;1.65;0.47;;;;;;;;;;5052338;28;20843;-81
2024/03/16 13:36:49;;;;;;;2.10;0.60;;;;;;;;;;5036671;28;20375;-82
2024/03/16 13:39:16;;;;;;;1.60;0.60;;;;;;;;;;5033261;28;20386;-82
2024/03/16 13:41:43;;;;;;;2.33;0.50;;;;;;;;;;5032924;28;20385;-82
2024/03/16 13:44:10;;;;;;;2.42;0.88;;;;;;;;;;5035432;28;20394;-82
2024/03/16 13:46:35;;;;;;;1.77;0.60;;;;;;;;;;5036956;28;20383;-82
2024/03/16 13:49:05;;;;;;;2.33;0.68;;;;;;;;;;5036709;28;20393;-82
2024/03/16 13:51:32;;;;;;;2.50;0.50;;;;;;;;;;5036384;28;20500;-82
2024/03/16 13:54:01;;;;;;;1.65;0.55;;;;;;;;;;5036513;28;20420;-81
2024/03/16 13:56:28;;;;;;;2.10;0.60;;;;;;;;;;5036553;28;20387;-82
2024/03/16 13:58:56;;;;;;;2.50;0.50;;;;;;;;;;5036927;28;20850;-83
2024/03/16 14:01:24;;;;;;;1.97;0.50;;;;;;;;;;5036776;28;20742;-82
2024/03/16 14:03:50;;;;;;;2.33;0.60;;;;;;;;;;5036175;28;20383;-82
2024/03/16 14:06:16;;;;;;;2.20;0.70;;;;;;;;;;5037098;28;20390;-82
2024/03/16 14:08:43;;;;;;;1.80;0.70;;;;;;;;;;5036368;28;20387;-83
2024/03/16 14:11:10;;;;;;;1.75;0.55;;;;;;;;;;5036154;28;20383;-82
2024/03/16 14:13:36;;;;;;;2.22;0.70;;;;;;;;;;5035542;28;20460;-82
2024/03/16 14:16:05;;;;;;;2.25;0.60;;;;;;;;;;5036295;28;20477;-82
2024/03/16 14:18:32;;;;;;;3.70;0.70;;;;;;;;;;5035889;28;20400;-82
2024/03/16 14:20:58;;;;;;;1.27;0.47;;;;;;;;;;5035911;28;20474;-81
2024/03/16 14:23:24;;;;;;;1.98;0.50;;;;;;;;;;5036196;28;20466;-83
2024/03/16 14:25:52;;;;;;;1.25;0.50;;;;;;;;;;5035861;28;20437;-82
2024/03/16 14:28:18;;;;;;;0.70;0.57;;;;;;;;;;5036196;28;20845;-82
2024/03/16 14:30:44;;;;;;;1.08;0.45;;;;;;;;;;5035936;28;20387;-82
2024/03/16 14:33:10;;;;;;;1.25;0.43;;;;;;;;;;5036180;28;20883;-82
2024/03/16 14:35:36;;;;;;;1.35;0.47;;;;;;;;;;5036066;28;20398;-82
2024/03/16 14:38:02;;;;;;;0.85;0.35;;;;;;;;;;5035707;28;20383;-82
2024/03/16 14:40:28;;;;;;;1.52;0.60;;;;;;;;;;5036158;28;20509;-82
2024/03/16 14:42:54;;;;;;;1.15;0.50;;;;;;;;;;5035596;28;20382;-82